createdAt,value
2023-09-24T00:01:41.611Z,101675.06
2023-09-24T00:04:10.313Z,101672.25
2023-09-24T00:06:38.199Z,101674.72
2023-09-24T00:09:06.218Z,101678.69
2023-09-24T00:11:34.258Z,101673.66
2023-09-24T00:14:02.070Z,101668.81
2023-09-24T00:16:30.018Z,101670.34
2023-09-24T00:18:59.947Z,101665.84
2023-09-24T00:21:27.789Z,101672.66
2023-09-24T00:23:55.623Z,101673.31
2023-09-24T00:26:23.727Z,101669.66
2023-09-24T00:28:51.689Z,101669.31
2023-09-24T00:31:19.744Z,101667.78
2023-09-24T00:33:47.983Z,101662.53
2023-09-24T00:36:17.803Z,101666.22
2023-09-24T00:38:45.638Z,101668.28
2023-09-24T00:41:15.089Z,101666.81
2023-09-24T00:43:44.344Z,101666.28
2023-09-24T00:46:15.120Z,101663.38
2023-09-24T00:48:45.566Z,101662.75
2023-09-24T00:51:18.885Z,101657.59
2023-09-24T00:53:47.873Z,101664.81
2023-09-24T00:56:16.477Z,101664.13
2023-09-24T00:58:47.869Z,101659.63
2023-09-24T01:01:16.274Z,101662.22
2023-09-24T01:03:44.448Z,101655.44
2023-09-24T01:06:12.463Z,101656.63
2023-09-24T01:08:43.448Z,101652.56
2023-09-24T01:11:12.484Z,101655.44
2023-09-24T01:13:41.388Z,101643.34
2023-09-24T01:16:10.658Z,101635.63
2023-09-24T01:18:40.746Z,101635.91
2023-09-24T01:21:13.888Z,101646.38
2023-09-24T01:23:47.530Z,101643.09
2023-09-24T01:26:16.373Z,101654.88
2023-09-24T01:28:44.611Z,101651.09
2023-09-24T01:31:13.300Z,101654.75
2023-09-24T01:33:41.564Z,101645.13
2023-09-24T01:36:10.335Z,101641.00
2023-09-24T01:38:41.655Z,101640.16
2023-09-24T01:41:12.191Z,101643.59
2023-09-24T01:43:43.617Z,101633.22
2023-09-24T01:46:14.902Z,101618.72
2023-09-24T01:48:44.521Z,101621.16
2023-09-24T01:51:12.701Z,101610.66
2023-09-24T01:53:41.405Z,101608.31
2023-09-24T01:56:11.954Z,101612.34
2023-09-24T01:58:40.349Z,101614.22
2023-09-24T02:01:09.423Z,101616.25
2023-09-24T02:03:37.742Z,101622.41
2023-09-24T02:06:08.309Z,101617.66
2023-09-24T02:08:36.701Z,101616.34
2023-09-24T02:11:04.902Z,101614.44
2023-09-24T02:13:34.294Z,101617.47
2023-09-24T02:16:03.720Z,101610.34
2023-09-24T02:18:33.833Z,101607.13
2023-09-24T02:21:02.127Z,101616.97
2023-09-24T02:23:30.558Z,101606.56
2023-09-24T02:25:58.691Z,101608.28
2023-09-24T02:28:26.555Z,101608.31
2023-09-24T02:30:56.408Z,101609.63
2023-09-24T02:33:24.463Z,101606.03
2023-09-24T02:35:52.463Z,101599.28
2023-09-24T02:38:20.952Z,101600.84
2023-09-24T02:40:48.814Z,101616.03
2023-09-24T02:43:16.803Z,101598.13
2023-09-24T02:45:44.709Z,101610.34
2023-09-24T02:48:14.474Z,101613.09
2023-09-24T02:50:42.396Z,101607.00
2023-09-24T02:53:10.879Z,101611.34
2023-09-24T02:55:39.015Z,101611.81
2023-09-24T02:58:07.198Z,101606.56
2023-09-24T03:00:37.571Z,101610.81
2023-09-24T03:03:07.556Z,101612.47
2023-09-24T03:05:37.595Z,101608.34
2023-09-24T03:08:06.361Z,101601.25
2023-09-24T03:10:35.496Z,101606.97
2023-09-24T03:13:05.879Z,101612.00
2023-09-24T03:15:34.223Z,101604.50
2023-09-24T03:18:02.181Z,101604.31
2023-09-24T03:20:30.893Z,101610.13
2023-09-24T03:23:04.686Z,101607.97
2023-09-24T03:25:33.846Z,101599.63
2023-09-24T03:28:02.758Z,101594.53
2023-09-24T03:30:31.456Z,101596.81
2023-09-24T03:33:00.199Z,101600.00
2023-09-24T03:35:29.891Z,101596.41
2023-09-24T03:37:58.157Z,101596.94
2023-09-24T03:40:28.869Z,101602.09
2023-09-24T03:42:56.905Z,101607.09
2023-09-24T03:45:26.411Z,101604.84
2023-09-24T03:47:55.046Z,101604.13
2023-09-24T03:50:22.981Z,101599.31
2023-09-24T03:52:54.464Z,101600.97
2023-09-24T03:55:22.419Z,101601.19
2023-09-24T03:57:51.674Z,101603.53
2023-09-24T04:00:22.210Z,101606.00
2023-09-24T04:02:52.018Z,101608.56
2023-09-24T04:05:24.321Z,101608.44
2023-09-24T04:07:54.457Z,101601.75
2023-09-24T04:10:23.998Z,101591.78
2023-09-24T04:12:53.519Z,101587.56
2023-09-24T04:15:23.664Z,101590.78
2023-09-24T04:17:52.074Z,101590.56
2023-09-24T04:20:22.067Z,101591.13
2023-09-24T04:22:50.894Z,101590.97
2023-09-24T04:25:22.381Z,101595.91
2023-09-24T04:27:50.698Z,101596.38
2023-09-24T04:30:22.259Z,101595.69
2023-09-24T04:32:53.764Z,101597.06
2023-09-24T04:35:22.431Z,101599.00
2023-09-24T04:37:51.410Z,101609.56
2023-09-24T04:40:19.843Z,101608.72
2023-09-24T04:42:48.751Z,101608.09
2023-09-24T04:45:18.969Z,101610.84
2023-09-24T04:47:50.145Z,101605.31
2023-09-24T04:50:18.509Z,101610.06
2023-09-24T04:52:49.040Z,101606.47
2023-09-24T04:55:17.254Z,101616.84
2023-09-24T04:57:45.679Z,101602.22
2023-09-24T05:00:16.162Z,101595.69
2023-09-24T05:02:44.551Z,101600.50
2023-09-24T05:05:15.676Z,101603.00
2023-09-24T05:07:43.708Z,101591.16
2023-09-24T05:10:11.728Z,101584.50
2023-09-24T05:12:39.544Z,101590.09
2023-09-24T05:15:09.041Z,101595.38
2023-09-24T05:17:37.259Z,101587.75
2023-09-24T05:20:06.748Z,101583.50
2023-09-24T05:22:35.992Z,101583.28
2023-09-24T05:25:04.292Z,101584.25
2023-09-24T05:27:33.759Z,101583.63
2023-09-24T05:30:02.050Z,101577.44
2023-09-24T05:32:29.988Z,101581.91
2023-09-24T05:34:57.896Z,101583.75
2023-09-24T05:37:25.815Z,101589.94
2023-09-24T05:39:55.029Z,101591.34
2023-09-24T05:42:22.867Z,101591.44
2023-09-24T05:44:50.755Z,101590.84
2023-09-24T05:47:18.595Z,101584.88
2023-09-24T05:49:46.358Z,101596.28
2023-09-24T05:52:14.123Z,101593.50
2023-09-24T05:54:42.760Z,101600.13
2023-09-24T05:57:12.109Z,101608.41
2023-09-24T05:59:40.114Z,101614.88
2023-09-24T06:02:08.371Z,101614.47
2023-09-24T06:04:36.427Z,101621.66
2023-09-24T06:07:04.416Z,101616.22
2023-09-24T06:09:32.389Z,101623.22
2023-09-24T06:12:00.201Z,101623.44
2023-09-24T06:14:29.895Z,101621.50
2023-09-24T06:16:57.990Z,101636.88
2023-09-24T06:19:25.729Z,101635.66
2023-09-24T06:21:53.910Z,101642.09
2023-09-24T06:24:22.634Z,101637.47
2023-09-24T06:26:50.512Z,101626.28
2023-09-24T06:29:18.413Z,101625.28
2023-09-24T06:31:48.781Z,101628.22
2023-09-24T06:34:16.659Z,101623.25
2023-09-24T06:36:44.480Z,101616.38
2023-09-24T06:39:15.292Z,101615.50
2023-09-24T06:41:43.966Z,101620.88
2023-09-24T06:44:12.303Z,101612.44
2023-09-24T06:46:40.128Z,101611.25
2023-09-24T06:49:09.308Z,101615.56
2023-09-24T06:51:37.150Z,101621.72
2023-09-24T06:54:05.101Z,101629.38
2023-09-24T06:56:32.933Z,101627.38
2023-09-24T06:59:00.776Z,101627.94
2023-09-24T07:01:29.195Z,101628.69
2023-09-24T07:03:57.215Z,101625.81
2023-09-24T07:06:28.194Z,101617.34
2023-09-24T07:08:56.241Z,101618.19
2023-09-24T07:11:26.371Z,101622.13
2023-09-24T07:13:54.502Z,101613.72
2023-09-24T07:16:25.132Z,101607.53
2023-09-24T07:18:54.253Z,101609.81
2023-09-24T07:21:33.728Z,101605.09
2023-09-24T07:24:06.314Z,101606.69
2023-09-24T07:26:34.416Z,101611.63
2023-09-24T07:29:02.340Z,101605.72
2023-09-24T07:31:31.672Z,101614.81
2023-09-24T07:34:02.330Z,101609.22
2023-09-24T07:36:36.120Z,101617.13
2023-09-24T07:39:11.197Z,101611.69
2023-09-24T07:41:39.156Z,101616.44
2023-09-24T07:44:07.679Z,101614.25
2023-09-24T07:46:35.603Z,101621.22
2023-09-24T07:49:06.762Z,101621.53
2023-09-24T07:51:35.242Z,101622.75
2023-09-24T07:54:03.201Z,101615.81
2023-09-24T07:56:32.860Z,101619.09
2023-09-24T07:59:01.916Z,101609.09
2023-09-24T08:01:30.041Z,101614.19
2023-09-24T08:03:58.049Z,101616.00
2023-09-24T08:06:29.022Z,101624.44
2023-09-24T08:09:09.062Z,101622.94
2023-09-24T08:11:46.135Z,101627.91
2023-09-24T08:14:13.974Z,101619.44
2023-09-24T08:16:42.391Z,101627.28
2023-09-24T08:19:10.393Z,101624.34
2023-09-24T08:21:38.246Z,101628.38
2023-09-24T08:24:06.846Z,101627.28
2023-09-24T08:26:35.108Z,101633.44
2023-09-24T08:29:07.490Z,101628.03
2023-09-24T08:31:36.462Z,101630.66
2023-09-24T08:34:04.670Z,101627.50
2023-09-24T08:36:32.598Z,101632.41
2023-09-24T08:39:05.809Z,101627.72
2023-09-24T08:41:34.891Z,101631.25
2023-09-24T08:44:07.211Z,101630.09
2023-09-24T08:46:36.583Z,101632.53
2023-09-24T08:49:05.254Z,101631.47
2023-09-24T08:51:35.098Z,101628.22
2023-09-24T08:54:03.707Z,101630.53
2023-09-24T08:56:31.725Z,101630.06
2023-09-24T08:59:00.287Z,101627.28
2023-09-24T09:01:29.511Z,101626.28
2023-09-24T09:03:57.413Z,101632.75
2023-09-24T09:06:32.912Z,101624.34
2023-09-24T09:09:01.358Z,101619.28
2023-09-24T09:11:39.664Z,101625.63
2023-09-24T09:14:07.489Z,101613.22
2023-09-24T09:16:56.639Z,101617.13
2023-09-24T09:19:24.929Z,101614.53
2023-09-24T09:21:53.745Z,101607.97
2023-09-24T09:24:23.949Z,101609.44
2023-09-24T09:26:55.916Z,101610.94
2023-09-24T09:29:24.686Z,101609.19
2023-09-24T09:31:55.660Z,101606.78
2023-09-24T09:34:24.229Z,101604.03
2023-09-24T09:36:52.682Z,101596.75
2023-09-24T09:39:20.632Z,101599.44
2023-09-24T09:41:51.737Z,101591.19
2023-09-24T09:44:26.729Z,101591.63
2023-09-24T09:47:01.363Z,101588.91
2023-09-24T09:49:33.821Z,101589.13
2023-09-24T09:52:03.601Z,101590.72
2023-09-24T09:54:36.058Z,101586.00
2023-09-24T09:57:06.207Z,101572.88
2023-09-24T09:59:36.323Z,101563.66
2023-09-24T10:02:06.989Z,101575.00
2023-09-24T10:04:37.065Z,101571.03
2023-09-24T10:07:06.567Z,101568.38
2023-09-24T10:09:37.613Z,101564.47
2023-09-24T10:12:08.272Z,101561.03
2023-09-24T10:14:38.294Z,101569.44
2023-09-24T10:17:41.133Z,101556.25
2023-09-24T10:20:10.412Z,101552.28
2023-09-24T10:22:41.613Z,101549.16
2023-09-24T10:25:34.123Z,101545.50
2023-09-24T10:28:08.765Z,101539.88
2023-09-24T10:31:05.625Z,101534.53
2023-09-24T10:34:00.636Z,101542.97
2023-09-24T10:36:30.708Z,101546.91
2023-09-24T10:39:11.735Z,101536.91
2023-09-24T10:42:17.001Z,101537.81
2023-09-24T10:44:45.071Z,101537.63
2023-09-24T10:47:26.607Z,101537.13
2023-09-24T10:50:03.995Z,101530.88
2023-09-24T10:52:47.129Z,101518.78
2023-09-24T10:55:16.692Z,101515.56
2023-09-24T10:57:51.294Z,101511.78
2023-09-24T11:00:20.103Z,101515.97
2023-09-24T11:02:54.849Z,101509.34
2023-09-24T11:05:22.935Z,101514.41
2023-09-24T11:07:50.734Z,101523.50
2023-09-24T11:10:19.878Z,101515.91
2023-09-24T11:12:52.304Z,101512.84
2023-09-24T11:15:21.065Z,101511.31
2023-09-24T11:17:51.233Z,101507.31
2023-09-24T11:20:22.113Z,101502.81
2023-09-24T11:22:58.337Z,101510.59
2023-09-24T11:25:26.355Z,101505.69
2023-09-24T11:27:56.546Z,101505.97
2023-09-24T11:30:28.120Z,101505.00
2023-09-24T11:32:56.058Z,101502.66
2023-09-24T11:35:26.646Z,101502.34
2023-09-24T11:37:57.894Z,101506.56
2023-09-24T11:40:26.368Z,101503.13
2023-09-24T11:42:57.462Z,101504.81
2023-09-24T11:45:49.579Z,101500.13
2023-09-24T11:48:21.429Z,101493.53
2023-09-24T11:50:51.144Z,101497.66
2023-09-24T11:53:24.120Z,101493.28
2023-09-24T11:55:54.070Z,101500.97
2023-09-24T11:58:27.342Z,101494.97
2023-09-24T12:00:56.226Z,101496.72
2023-09-24T12:03:24.966Z,101497.66
2023-09-24T12:05:53.274Z,101502.94
2023-09-24T12:08:22.234Z,101497.38
2023-09-24T12:10:52.041Z,101501.94
2023-09-24T12:13:20.417Z,101496.03
2023-09-24T12:15:49.687Z,101489.78
2023-09-24T12:18:17.622Z,101484.47
2023-09-24T12:20:46.343Z,101482.00
2023-09-24T12:23:14.315Z,101487.56
2023-09-24T12:25:44.622Z,101478.06
2023-09-24T12:28:15.225Z,101485.50
2023-09-24T12:30:44.304Z,101471.63
2023-09-24T12:33:15.410Z,101461.13
2023-09-24T12:35:43.998Z,101456.50
2023-09-24T12:38:12.792Z,101451.84
2023-09-24T12:40:40.670Z,101459.75
2023-09-24T12:43:08.516Z,101447.31
2023-09-24T12:45:36.383Z,101448.41
2023-09-24T12:48:04.542Z,101440.31
2023-09-24T12:50:35.428Z,101438.88
2023-09-24T12:53:03.304Z,101432.75
2023-09-24T12:55:31.360Z,101430.47
2023-09-24T12:57:59.388Z,101426.09
2023-09-24T13:00:27.233Z,101432.97
2023-09-24T13:02:55.218Z,101422.22
2023-09-24T13:05:24.627Z,101416.25
2023-09-24T13:07:53.808Z,101407.03
2023-09-24T13:10:21.631Z,101404.69
2023-09-24T13:12:49.479Z,101405.81
2023-09-24T13:15:17.366Z,101408.75
2023-09-24T13:17:45.315Z,101397.88
2023-09-24T13:20:14.641Z,101404.44
2023-09-24T13:22:42.782Z,101392.88
2023-09-24T13:25:14.846Z,101387.81
2023-09-24T13:27:43.212Z,101388.75
2023-09-24T13:30:11.433Z,101391.25
2023-09-24T13:32:40.005Z,101388.50
2023-09-24T13:35:09.078Z,101389.19
2023-09-24T13:37:38.947Z,101384.88
2023-09-24T13:40:22.771Z,101381.81
2023-09-24T13:42:56.360Z,101370.28
2023-09-24T13:45:25.112Z,101374.97
2023-09-24T13:47:52.985Z,101369.91
2023-09-24T13:50:20.923Z,101358.94
2023-09-24T13:52:48.865Z,101356.47
2023-09-24T13:55:16.816Z,101346.06
2023-09-24T13:57:44.605Z,101341.09
2023-09-24T14:00:14.816Z,101336.03
2023-09-24T14:02:44.085Z,101339.38
2023-09-24T14:05:12.014Z,101332.19
2023-09-24T14:07:39.832Z,101330.34
2023-09-24T14:10:25.589Z,101314.28
2023-09-24T14:12:53.340Z,101316.28
2023-09-24T14:15:22.548Z,101300.06
2023-09-24T14:18:02.806Z,101303.50
2023-09-24T14:20:38.161Z,101301.63
2023-09-24T14:23:06.017Z,101302.59
2023-09-24T14:25:39.057Z,101295.59
2023-09-24T14:28:07.410Z,101291.66
2023-09-24T14:30:38.892Z,101298.38
2023-09-24T14:33:07.837Z,101291.84
2023-09-24T14:35:36.697Z,101294.09
2023-09-24T14:38:05.095Z,101287.38
2023-09-24T14:40:36.532Z,101283.59
2023-09-24T14:43:04.744Z,101281.22
2023-09-24T14:45:32.577Z,101279.53
2023-09-24T14:48:02.534Z,101276.63
2023-09-24T14:50:30.451Z,101286.72
2023-09-24T14:52:58.338Z,101289.31
2023-09-24T14:55:26.286Z,101288.44
2023-09-24T14:57:55.750Z,101283.97
2023-09-24T15:00:25.963Z,101292.50
2023-09-24T15:02:57.029Z,101284.47
2023-09-24T15:05:26.674Z,101280.91
2023-09-24T15:07:54.737Z,101286.38
2023-09-24T15:10:23.748Z,101288.28
2023-09-24T15:12:53.364Z,101288.81
2023-09-24T15:15:21.161Z,101294.59
2023-09-24T15:17:49.091Z,101285.81
2023-09-24T15:20:17.098Z,101284.19
2023-09-24T15:22:47.008Z,101284.88
2023-09-24T15:25:14.871Z,101275.66
2023-09-24T15:27:42.705Z,101284.28
2023-09-24T15:30:11.196Z,101275.03
2023-09-24T15:32:39.069Z,101271.28
2023-09-24T15:35:07.678Z,101269.22
2023-09-24T15:37:35.476Z,101272.44
2023-09-24T15:40:05.508Z,101271.53
2023-09-24T15:42:33.421Z,101267.38
2023-09-24T15:45:01.315Z,101265.34
2023-09-24T15:47:29.167Z,101264.56
2023-09-24T15:49:58.351Z,101269.94
2023-09-24T15:52:26.265Z,101260.41
2023-09-24T15:54:54.195Z,101258.41
2023-09-24T15:57:24.285Z,101262.41
2023-09-24T15:59:52.210Z,101256.91
2023-09-24T16:02:20.171Z,101259.16
2023-09-24T16:04:48.675Z,101250.09
2023-09-24T16:07:16.546Z,101251.97
2023-09-24T16:09:44.450Z,101247.13
2023-09-24T16:12:12.322Z,101247.75
2023-09-24T16:14:41.619Z,101250.03
2023-09-24T16:17:09.695Z,101249.38
2023-09-24T16:19:37.545Z,101250.69
2023-09-24T16:22:05.606Z,101245.69
2023-09-24T16:24:33.952Z,101245.28
2023-09-24T16:27:01.862Z,101255.34
2023-09-24T16:29:29.715Z,101257.16
2023-09-24T16:31:58.962Z,101254.84
2023-09-24T16:34:29.382Z,101244.22
2023-09-24T16:36:57.175Z,101243.78
2023-09-24T16:39:25.056Z,101256.50
2023-09-24T16:41:52.841Z,101264.00
2023-09-24T16:44:20.686Z,101259.72
2023-09-24T16:46:49.745Z,101258.53
2023-09-24T16:49:18.955Z,101261.81
2023-09-24T16:51:48.544Z,101262.66
2023-09-24T16:54:16.723Z,101251.47
2023-09-24T16:56:44.554Z,101255.72
2023-09-24T16:59:12.407Z,101258.72
2023-09-24T17:01:40.465Z,101257.78
2023-09-24T17:04:08.683Z,101260.31
2023-09-24T17:06:37.991Z,101265.13
2023-09-24T17:09:05.941Z,101268.25
2023-09-24T17:11:33.744Z,101272.84
2023-09-24T17:14:03.695Z,101262.31
2023-09-24T17:16:31.565Z,101265.03
2023-09-24T17:18:59.397Z,101259.22
2023-09-24T17:21:29.113Z,101262.19
2023-09-24T17:23:58.694Z,101268.25
2023-09-24T17:26:26.897Z,101272.38
2023-09-24T17:28:54.712Z,101277.56
2023-09-24T17:31:23.397Z,101275.66
2023-09-24T17:33:51.369Z,101280.63
2023-09-24T17:36:20.960Z,101286.47
2023-09-24T17:38:49.621Z,101286.34
2023-09-24T17:41:19.185Z,101290.78
2023-09-24T17:43:47.461Z,101283.38
2023-09-24T17:46:18.084Z,101287.25
2023-09-24T17:48:47.511Z,101287.56
2023-09-24T17:51:16.534Z,101289.16
2023-09-24T17:53:44.849Z,101283.81
2023-09-24T17:56:13.828Z,101294.13
2023-09-24T17:58:43.535Z,101295.84
2023-09-24T18:01:13.456Z,101302.28
2023-09-24T18:03:43.530Z,101298.22
2023-09-24T18:06:11.986Z,101302.34
2023-09-24T18:08:40.992Z,101296.19
2023-09-24T18:11:09.103Z,101294.56
2023-09-24T18:13:38.660Z,101297.16
2023-09-24T18:16:08.264Z,101300.22
2023-09-24T18:18:37.461Z,101302.78
2023-09-24T18:21:06.474Z,101308.03
2023-09-24T18:23:35.896Z,101302.13
2023-09-24T18:26:04.760Z,101308.56
2023-09-24T18:28:32.826Z,101302.78
2023-09-24T18:31:01.746Z,101301.72
2023-09-24T18:33:32.455Z,101293.44
2023-09-24T18:36:01.918Z,101300.13
2023-09-24T18:38:30.517Z,101288.72
2023-09-24T18:40:58.756Z,101289.72
2023-09-24T18:43:27.257Z,101285.34
2023-09-24T18:46:01.759Z,101285.34
2023-09-24T18:48:32.961Z,101287.09
2023-09-24T18:51:01.269Z,101282.59
2023-09-24T18:53:30.489Z,101277.91
2023-09-24T18:56:02.729Z,101287.31
2023-09-24T18:58:32.113Z,101285.31
2023-09-24T19:01:00.658Z,101280.34
2023-09-24T19:03:29.335Z,101287.38
2023-09-24T19:05:58.735Z,101284.72
2023-09-24T19:08:27.302Z,101286.28
2023-09-24T19:10:55.973Z,101291.47
2023-09-24T19:13:30.110Z,101291.19
2023-09-24T19:16:06.300Z,101296.16
2023-09-24T19:18:34.680Z,101300.09
2023-09-24T19:21:05.346Z,101300.72
2023-09-24T19:23:33.650Z,101300.56
2023-09-24T19:26:12.128Z,101293.94
2023-09-24T19:28:40.504Z,101302.97
2023-09-24T19:31:09.348Z,101295.69
2023-09-24T19:33:38.727Z,101299.75
2023-09-24T19:36:09.093Z,101296.91
2023-09-24T19:38:37.559Z,101307.78
2023-09-24T19:41:07.008Z,101310.31
2023-09-24T19:43:34.981Z,101319.09
2023-09-24T19:46:03.431Z,101319.44
2023-09-24T19:48:32.425Z,101322.03
2023-09-24T19:51:00.974Z,101314.69
2023-09-24T19:53:30.803Z,101318.22
2023-09-24T19:55:59.248Z,101308.34
2023-09-24T19:58:29.043Z,101308.81
2023-09-24T20:01:01.383Z,101311.13
2023-09-24T20:03:29.561Z,101311.59
2023-09-24T20:05:58.123Z,101310.63
2023-09-24T20:08:30.629Z,101314.19
2023-09-24T20:11:00.720Z,101317.19
2023-09-24T20:13:30.824Z,101320.75
2023-09-24T20:15:59.151Z,101334.09
2023-09-24T20:18:27.826Z,101338.09
2023-09-24T20:20:56.153Z,101347.63
2023-09-24T20:23:24.119Z,101339.41
2023-09-24T20:25:54.259Z,101347.88
2023-09-24T20:28:33.702Z,101352.53
2023-09-24T20:31:12.234Z,101343.13
2023-09-24T20:33:49.885Z,101353.75
2023-09-24T20:36:26.845Z,101359.53
2023-09-24T20:38:54.704Z,101367.19
2023-09-24T20:41:22.557Z,101364.16
2023-09-24T20:43:52.479Z,101357.13
2023-09-24T20:46:23.307Z,101364.41
2023-09-24T20:48:51.484Z,101356.16
2023-09-24T20:51:19.772Z,101353.78
2023-09-24T20:53:47.733Z,101355.56
2023-09-24T20:56:16.101Z,101354.16
2023-09-24T20:58:46.689Z,101347.78
2023-09-24T21:01:16.025Z,101347.53
2023-09-24T21:03:45.504Z,101350.28
2023-09-24T21:06:13.820Z,101350.22
2023-09-24T21:08:41.852Z,101352.75
2023-09-24T21:11:09.807Z,101336.97
2023-09-24T21:13:37.721Z,101347.16
2023-09-24T21:16:08.976Z,101341.91
2023-09-24T21:18:38.253Z,101336.09
2023-09-24T21:21:06.184Z,101341.47
2023-09-24T21:23:34.053Z,101343.66
2023-09-24T21:26:03.132Z,101341.94
2023-09-24T21:28:31.038Z,101333.31
2023-09-24T21:31:04.505Z,101338.50
2023-09-24T21:33:32.618Z,101332.31
2023-09-24T21:36:02.018Z,101334.91
2023-09-24T21:38:29.959Z,101329.72
2023-09-24T21:40:58.141Z,101328.31
2023-09-24T21:43:31.062Z,101331.78
2023-09-24T21:45:59.730Z,101339.88
2023-09-24T21:48:27.706Z,101342.78
2023-09-24T21:50:56.418Z,101334.69
2023-09-24T21:53:25.757Z,101333.47
2023-09-24T21:55:55.405Z,101331.34
2023-09-24T21:58:23.321Z,101337.94
2023-09-24T22:00:51.159Z,101332.81
2023-09-24T22:03:19.927Z,101333.16
2023-09-24T22:05:48.148Z,101328.94
2023-09-24T22:08:16.028Z,101314.81
2023-09-24T22:10:45.273Z,101315.81
2023-09-24T22:13:13.071Z,101323.16
2023-09-24T22:15:41.016Z,101315.38
2023-09-24T22:18:08.946Z,101325.63
2023-09-24T22:20:36.825Z,101318.59
2023-09-24T22:23:05.009Z,101316.09
2023-09-24T22:25:32.859Z,101319.22
2023-09-24T22:28:02.107Z,101313.13
2023-09-24T22:30:31.509Z,101323.06
2023-09-24T22:32:59.933Z,101323.25
2023-09-24T22:35:27.788Z,101332.63
2023-09-24T22:37:55.710Z,101335.22
2023-09-24T22:40:23.511Z,101334.56
2023-09-24T22:42:51.288Z,101338.69
2023-09-24T22:45:20.495Z,101333.69
2023-09-24T22:47:48.549Z,101336.19
2023-09-24T22:50:16.392Z,101335.00
2023-09-24T22:52:44.255Z,101340.19
2023-09-24T22:55:12.813Z,101342.97
2023-09-24T22:57:41.746Z,101342.81
2023-09-24T23:00:14.830Z,101353.84
2023-09-24T23:02:44.324Z,101350.50
2023-09-24T23:05:13.802Z,101352.44
2023-09-24T23:07:42.140Z,101342.56
2023-09-24T23:10:11.797Z,101348.63
2023-09-24T23:12:39.783Z,101349.47
2023-09-24T23:15:08.701Z,101351.00
2023-09-24T23:17:36.582Z,101362.13
2023-09-24T23:20:09.649Z,101351.03
2023-09-24T23:22:37.440Z,101348.53
2023-09-24T23:25:06.118Z,101349.06
2023-09-24T23:27:33.955Z,101354.38
2023-09-24T23:30:01.832Z,101358.13
2023-09-24T23:32:30.466Z,101357.94
2023-09-24T23:34:58.370Z,101352.69
2023-09-24T23:37:28.061Z,101353.34
2023-09-24T23:39:56.066Z,101356.50
2023-09-24T23:42:25.789Z,101352.38
2023-09-24T23:44:53.652Z,101352.69
2023-09-24T23:47:22.462Z,101342.63
2023-09-24T23:49:50.391Z,101344.78
2023-09-24T23:52:18.218Z,101351.53
2023-09-24T23:54:47.992Z,101343.53
2023-09-24T23:57:15.965Z,101335.66
2023-09-24T23:59:44.004Z,101336.75
